createdAt,value
2023-03-06T00:00:48.622Z,21.08
2023-03-06T00:03:15.510Z,19.98
2023-03-06T00:05:42.307Z,20.05
2023-03-06T00:08:09.127Z,16.02
2023-03-06T00:10:35.700Z,18.25
2023-03-06T00:13:05.670Z,18.58
2023-03-06T00:15:32.546Z,18.60
2023-03-06T00:17:59.260Z,19.42
2023-03-06T00:20:26.740Z,16.73
2023-03-06T00:22:55.424Z,17.17
2023-03-06T00:25:22.664Z,17.23
2023-03-06T00:27:50.307Z,19.95
2023-03-06T00:30:20.169Z,17.58
2023-03-06T00:32:46.719Z,17.67
2023-03-06T00:35:14.371Z,19.92
2023-03-06T00:37:41.303Z,19.08
2023-03-06T00:40:10.665Z,18.55
2023-03-06T00:42:37.223Z,19.95
2023-03-06T00:45:04.100Z,17.25
2023-03-06T00:47:30.683Z,18.65
2023-03-06T00:49:57.249Z,19.92
2023-03-06T00:52:23.935Z,19.58
2023-03-06T00:54:50.618Z,17.05
2023-03-06T00:57:17.180Z,15.98
2023-03-06T00:59:43.717Z,17.70
2023-03-06T01:02:10.698Z,16.65
2023-03-06T01:04:37.326Z,16.52
2023-03-06T01:07:04.055Z,16.05
2023-03-06T01:09:30.707Z,15.63
2023-03-06T01:11:57.394Z,15.32
2023-03-06T01:14:24.402Z,16.35
2023-03-06T01:16:50.890Z,16.73
2023-03-06T01:19:17.990Z,15.55
2023-03-06T01:21:44.573Z,13.52
2023-03-06T01:24:11.168Z,15.77
2023-03-06T01:26:37.780Z,17.25
2023-03-06T01:29:04.383Z,14.93
2023-03-06T01:31:30.938Z,14.55
2023-03-06T01:33:57.530Z,15.93
2023-03-06T01:36:24.385Z,16.50
2023-03-06T01:38:50.991Z,16.83
2023-03-06T01:41:18.028Z,14.48
2023-03-06T01:43:47.180Z,15.90
2023-03-06T01:48:52.522Z,14.55
2023-03-06T01:51:19.317Z,14.02
2023-03-06T01:53:47.561Z,12.82
2023-03-06T01:56:15.465Z,14.13
2023-03-06T01:58:44.743Z,16.13
2023-03-06T02:01:14.484Z,13.32
2023-03-06T02:03:42.877Z,14.95
2023-03-06T02:06:09.673Z,14.23
2023-03-06T02:08:36.443Z,16.00
2023-03-06T02:11:08.807Z,14.98
2023-03-06T02:13:36.407Z,16.10
2023-03-06T02:16:02.960Z,15.05
2023-03-06T02:18:30.046Z,12.15
2023-03-06T02:21:09.878Z,14.13
2023-03-06T02:24:13.070Z,14.02
2023-03-06T02:26:41.909Z,12.90
2023-03-06T02:29:09.280Z,13.02
2023-03-06T02:31:36.055Z,13.10
2023-03-06T02:34:07.539Z,14.98
2023-03-06T02:36:40.980Z,14.32
2023-03-06T02:39:07.940Z,14.88
2023-03-06T02:41:34.565Z,14.02
2023-03-06T02:44:01.127Z,14.38
2023-03-06T02:46:27.783Z,13.63
2023-03-06T02:48:54.552Z,14.68
2023-03-06T02:51:21.511Z,13.63
2023-03-06T02:53:48.064Z,15.07
2023-03-06T02:56:15.153Z,15.05
2023-03-06T02:58:42.097Z,15.15
2023-03-06T03:01:08.726Z,14.35
2023-03-06T03:03:35.305Z,15.07
2023-03-06T03:06:05.358Z,12.73
2023-03-06T03:08:32.911Z,14.23
2023-03-06T03:11:00.873Z,14.25
2023-03-06T03:13:27.418Z,15.40
2023-03-06T03:16:01.052Z,13.25
2023-03-06T03:18:27.804Z,14.38
2023-03-06T03:20:54.761Z,11.95
2023-03-06T03:23:21.816Z,14.73
2023-03-06T03:25:48.410Z,14.10
2023-03-06T03:28:15.292Z,13.18
2023-03-06T03:30:42.917Z,15.10
2023-03-06T03:33:09.743Z,14.60
2023-03-06T03:35:36.381Z,14.05
2023-03-06T03:38:03.272Z,13.60
2023-03-06T03:40:29.907Z,14.73
2023-03-06T03:42:56.453Z,15.10
2023-03-06T03:45:23.707Z,13.18
2023-03-06T03:47:50.217Z,14.32
2023-03-06T03:50:16.752Z,14.13
2023-03-06T03:52:43.400Z,14.73
2023-03-06T03:55:10.275Z,15.70
2023-03-06T03:57:39.123Z,15.20
2023-03-06T04:00:07.874Z,15.77
2023-03-06T04:02:34.470Z,13.65
2023-03-06T04:05:01.087Z,13.65
2023-03-06T04:07:27.669Z,14.23
2023-03-06T04:09:54.258Z,14.60
2023-03-06T04:12:20.839Z,14.70
2023-03-06T04:14:47.431Z,13.88
2023-03-06T04:17:14.000Z,14.43
2023-03-06T04:19:40.507Z,15.75
2023-03-06T04:22:07.025Z,17.38
2023-03-06T04:24:33.596Z,15.45
2023-03-06T04:27:00.211Z,14.90
2023-03-06T04:29:26.833Z,15.60
2023-03-06T04:31:53.392Z,14.52
2023-03-06T04:34:19.989Z,14.95
2023-03-06T04:36:46.600Z,17.02
2023-03-06T04:39:14.185Z,17.23
2023-03-06T04:41:41.938Z,15.48
2023-03-06T04:44:09.323Z,16.75
2023-03-06T04:46:36.395Z,13.45
2023-03-06T04:49:04.117Z,16.45
2023-03-06T04:51:30.977Z,16.02
2023-03-06T04:53:57.682Z,16.58
2023-03-06T04:56:24.376Z,16.13
2023-03-06T04:58:53.697Z,14.65
2023-03-06T05:01:20.368Z,14.93
2023-03-06T05:03:46.946Z,16.08
2023-03-06T05:06:14.990Z,14.70
2023-03-06T05:08:41.648Z,13.93
2023-03-06T05:11:08.246Z,13.10
2023-03-06T05:13:34.834Z,15.40
2023-03-06T05:16:05.667Z,17.38
2023-03-06T05:18:35.612Z,16.10
2023-03-06T05:21:03.092Z,17.63
2023-03-06T05:23:32.620Z,18.70
2023-03-06T05:25:59.550Z,17.25
2023-03-06T05:28:27.029Z,17.48
2023-03-06T05:30:53.664Z,20.80
2023-03-06T05:33:20.200Z,21.52
2023-03-06T05:35:48.205Z,25.38
2023-03-06T05:38:15.985Z,26.00
2023-03-06T05:40:43.921Z,22.63
2023-03-06T05:43:11.918Z,22.80
2023-03-06T05:45:39.608Z,20.10
2023-03-06T05:48:07.244Z,17.73
2023-03-06T05:50:34.222Z,17.67
2023-03-06T05:53:01.361Z,18.45
2023-03-06T05:55:27.867Z,21.67
2023-03-06T05:57:54.510Z,22.65
2023-03-06T06:00:21.937Z,21.90
2023-03-06T06:02:48.892Z,22.52
2023-03-06T06:05:15.497Z,21.48
2023-03-06T06:07:42.629Z,18.98
2023-03-06T06:10:10.919Z,21.98
2023-03-06T06:12:37.850Z,20.30
2023-03-06T06:15:04.969Z,22.63
2023-03-06T06:17:31.770Z,21.60
2023-03-06T06:19:58.297Z,20.08
2023-03-06T06:22:24.894Z,23.30
2023-03-06T06:24:51.457Z,22.17
2023-03-06T06:27:18.044Z,20.45
2023-03-06T06:29:44.613Z,20.63
2023-03-06T06:32:12.337Z,23.50
2023-03-06T06:34:39.876Z,22.63
2023-03-06T06:37:06.578Z,24.02
2023-03-06T06:39:33.129Z,25.85
2023-03-06T06:42:20.278Z,21.77
2023-03-06T06:44:46.352Z,19.77
2023-03-06T06:47:28.152Z,20.60
2023-03-06T06:49:57.095Z,21.92
2023-03-06T06:52:24.729Z,20.73
2023-03-06T06:54:52.042Z,23.50
2023-03-06T06:57:18.660Z,22.83
2023-03-06T06:59:45.246Z,22.98
2023-03-06T07:02:13.847Z,23.40
2023-03-06T07:04:49.274Z,23.30
2023-03-06T07:07:25.367Z,22.40
2023-03-06T07:12:18.475Z,23.48
2023-03-06T07:14:44.991Z,24.42
2023-03-06T07:17:11.520Z,23.63
2023-03-06T07:19:38.742Z,26.58
2023-03-06T07:22:07.568Z,23.73
2023-03-06T07:24:34.415Z,25.88
2023-03-06T07:27:00.910Z,22.30
2023-03-06T07:29:27.530Z,20.98
2023-03-06T07:31:54.098Z,23.15
2023-03-06T07:34:20.736Z,23.20
2023-03-06T07:36:47.321Z,22.58
2023-03-06T07:39:13.829Z,25.20
2023-03-06T07:41:40.410Z,24.55
2023-03-06T07:44:07.002Z,26.17
2023-03-06T07:46:33.620Z,26.90
2023-03-06T07:49:02.328Z,27.42
2023-03-06T07:51:28.998Z,26.95
2023-03-06T07:53:55.607Z,27.10
2023-03-06T07:56:22.212Z,29.02
2023-03-06T07:58:48.817Z,31.23
2023-03-06T08:01:19.854Z,27.55
2023-03-06T08:03:47.977Z,24.98
2023-03-06T08:06:18.058Z,27.83
2023-03-06T08:08:46.720Z,29.25
2023-03-06T08:11:15.634Z,29.45
2023-03-06T08:13:42.837Z,28.60
2023-03-06T08:16:09.886Z,30.02
2023-03-06T08:18:39.494Z,30.85
2023-03-06T08:21:12.082Z,30.27
2023-03-06T08:23:39.526Z,28.73
2023-03-06T08:26:17.280Z,27.42
2023-03-06T08:28:44.075Z,27.15
2023-03-06T08:31:13.653Z,23.33
2023-03-06T08:33:41.791Z,24.73
2023-03-06T08:36:08.726Z,26.97
2023-03-06T08:38:35.320Z,27.05
2023-03-06T08:41:02.076Z,26.98
2023-03-06T08:43:28.729Z,29.10
2023-03-06T08:45:58.010Z,25.35
2023-03-06T08:48:25.003Z,29.55
2023-03-06T08:50:52.080Z,26.80
2023-03-06T08:53:18.924Z,26.48
2023-03-06T08:55:45.546Z,28.45
2023-03-06T08:58:12.098Z,26.52
2023-03-06T09:00:38.821Z,29.25
2023-03-06T09:03:05.830Z,29.08
2023-03-06T09:05:32.571Z,26.33
2023-03-06T09:07:59.174Z,25.52
2023-03-06T09:10:26.175Z,25.52
2023-03-06T09:12:55.108Z,24.60
2023-03-06T09:15:23.024Z,25.67
2023-03-06T09:17:50.899Z,26.63
2023-03-06T09:20:18.819Z,24.60
2023-03-06T09:22:45.962Z,24.92
2023-03-06T09:25:14.122Z,27.10
2023-03-06T09:27:41.613Z,26.38
2023-03-06T09:30:09.570Z,23.58
2023-03-06T09:32:36.207Z,27.23
2023-03-06T09:35:02.850Z,25.00
2023-03-06T09:37:29.429Z,23.80
2023-03-06T09:39:56.463Z,23.40
2023-03-06T09:42:23.830Z,25.55
2023-03-06T09:44:59.385Z,24.25
2023-03-06T09:48:00.883Z,24.00
2023-03-06T09:50:38.516Z,21.90
2023-03-06T09:53:41.143Z,22.38
2023-03-06T09:56:17.294Z,18.35
2023-03-06T09:58:53.834Z,21.25
2023-03-06T10:01:25.855Z,19.70
2023-03-06T10:04:16.271Z,21.13
2023-03-06T10:06:50.362Z,19.92
2023-03-06T10:09:35.907Z,22.02
2023-03-06T10:12:06.743Z,19.63
2023-03-06T10:14:48.413Z,21.15
2023-03-06T10:17:22.241Z,17.98
2023-03-06T10:19:49.864Z,19.88
2023-03-06T10:22:24.593Z,22.33
2023-03-06T10:25:00.825Z,19.65
2023-03-06T10:27:58.462Z,20.02
2023-03-06T10:30:44.712Z,18.00
2023-03-06T10:33:39.109Z,20.23
2023-03-06T10:36:06.022Z,21.52
2023-03-06T10:38:34.539Z,20.58
2023-03-06T10:41:11.878Z,19.10
2023-03-06T10:43:43.713Z,21.33
2023-03-06T10:46:13.132Z,22.27
2023-03-06T10:48:42.351Z,21.05
2023-03-06T10:51:24.398Z,19.30
2023-03-06T10:53:59.788Z,22.08
2023-03-06T10:56:35.522Z,20.08
2023-03-06T10:59:20.524Z,23.02
2023-03-06T11:01:52.371Z,21.77
2023-03-06T11:04:26.258Z,20.92
2023-03-06T11:07:14.639Z,21.70
2023-03-06T11:09:43.845Z,20.63
2023-03-06T11:12:21.085Z,21.45
2023-03-06T11:14:47.706Z,19.75
2023-03-06T11:17:32.205Z,21.80
2023-03-06T11:20:19.151Z,22.27
2023-03-06T11:23:10.333Z,21.20
2023-03-06T11:26:03.663Z,22.23
2023-03-06T11:28:45.060Z,21.48
2023-03-06T11:31:20.842Z,20.67
2023-03-06T11:34:06.196Z,18.30
2023-03-06T11:36:41.411Z,20.60
2023-03-06T11:39:30.593Z,19.33
2023-03-06T11:42:05.521Z,18.90
2023-03-06T11:44:57.031Z,17.58
2023-03-06T11:47:28.903Z,20.38
2023-03-06T11:50:04.222Z,20.30
2023-03-06T11:52:57.517Z,18.38
2023-03-06T11:55:38.945Z,16.35
2023-03-06T11:58:24.345Z,18.10
2023-03-06T12:00:59.001Z,17.55
2023-03-06T12:03:44.114Z,17.75
2023-03-06T12:06:18.379Z,16.92
2023-03-06T12:08:53.345Z,16.10
2023-03-06T12:11:25.451Z,16.63
2023-03-06T12:14:03.665Z,14.25
2023-03-06T12:17:18.828Z,16.67
2023-03-06T12:20:01.814Z,15.50
2023-03-06T12:22:57.964Z,15.35
2023-03-06T12:25:45.134Z,15.90
2023-03-06T12:28:50.296Z,15.85
2023-03-06T12:31:17.710Z,14.85
2023-03-06T12:33:50.282Z,16.13
2023-03-06T12:36:43.092Z,14.77
2023-03-06T12:39:30.958Z,14.48
2023-03-06T12:42:06.739Z,15.35
2023-03-06T12:44:38.195Z,14.03
2023-03-06T12:47:15.898Z,15.38
2023-03-06T12:49:46.052Z,14.57
2023-03-06T12:52:33.123Z,15.30
2023-03-06T12:55:04.437Z,16.23
2023-03-06T12:57:33.671Z,15.18
2023-03-06T13:00:00.311Z,14.82
2023-03-06T13:02:33.063Z,14.95
2023-03-06T13:05:18.170Z,14.20
2023-03-06T13:08:12.666Z,14.00
2023-03-06T13:10:42.251Z,15.38
2023-03-06T13:13:42.708Z,14.13
2023-03-06T13:16:18.758Z,14.25
2023-03-06T13:19:32.762Z,13.13
2023-03-06T13:22:01.714Z,13.68
2023-03-06T13:24:35.574Z,15.65
2023-03-06T13:27:08.001Z,15.63
2023-03-06T13:29:36.992Z,13.68
2023-03-06T13:32:03.475Z,14.82
2023-03-06T13:34:50.265Z,13.45
2023-03-06T13:37:16.820Z,13.82
2023-03-06T13:39:55.067Z,14.05
2023-03-06T13:42:31.802Z,12.75
2023-03-06T13:45:14.839Z,14.18
2023-03-06T13:50:42.972Z,13.48
2023-03-06T13:53:18.695Z,13.53
2023-03-06T13:56:00.633Z,14.93
2023-03-06T13:58:51.463Z,14.88
2023-03-06T14:01:36.292Z,13.60
2023-03-06T14:04:21.926Z,15.32
2023-03-06T14:06:52.581Z,14.23
2023-03-06T14:09:24.205Z,13.15
2023-03-06T14:12:02.236Z,15.10
2023-03-06T14:14:35.577Z,14.93
2023-03-06T14:17:05.290Z,13.18
2023-03-06T14:19:37.597Z,14.93
2023-03-06T14:22:05.803Z,14.43
2023-03-06T14:24:39.090Z,13.50
2023-03-06T14:27:06.864Z,13.73
2023-03-06T14:29:33.891Z,14.52
2023-03-06T14:32:01.961Z,12.98
2023-03-06T14:34:31.100Z,14.75
2023-03-06T14:37:05.445Z,12.45
2023-03-06T14:39:38.823Z,12.77
2023-03-06T14:42:21.974Z,13.18
2023-03-06T14:44:59.574Z,14.02
2023-03-06T14:47:30.115Z,13.70
2023-03-06T14:50:21.771Z,13.70
2023-03-06T14:52:55.303Z,14.40
2023-03-06T14:55:25.285Z,14.27
2023-03-06T14:58:15.409Z,12.93
2023-03-06T15:00:47.317Z,12.88
2023-03-06T15:03:21.554Z,13.55
2023-03-06T15:05:49.310Z,11.98
2023-03-06T15:08:25.744Z,13.02
2023-03-06T15:11:01.734Z,12.95
2023-03-06T15:13:30.421Z,11.18
2023-03-06T15:15:58.220Z,12.65
2023-03-06T15:18:30.646Z,12.10
2023-03-06T15:21:13.337Z,11.68
2023-03-06T15:23:42.204Z,10.75
2023-03-06T15:26:33.872Z,11.43
2023-03-06T15:29:23.923Z,11.43
2023-03-06T15:31:50.703Z,11.27
2023-03-06T15:34:23.700Z,11.98
2023-03-06T15:36:54.282Z,13.20
2023-03-06T15:39:41.075Z,12.98
2023-03-06T15:42:21.008Z,11.55
2023-03-06T15:44:50.081Z,11.43
2023-03-06T15:47:17.134Z,12.10
2023-03-06T15:49:44.077Z,12.77
2023-03-06T15:52:10.784Z,11.48
2023-03-06T15:54:38.111Z,12.23
2023-03-06T15:57:07.284Z,11.73
2023-03-06T15:59:42.846Z,12.23
2023-03-06T16:02:19.144Z,11.57
2023-03-06T16:04:46.472Z,11.32
2023-03-06T16:07:13.597Z,10.85
2023-03-06T16:09:44.125Z,10.52
2023-03-06T16:12:17.649Z,11.70
2023-03-06T16:14:49.068Z,12.20
2023-03-06T16:17:16.924Z,11.75
2023-03-06T16:19:43.679Z,12.00
2023-03-06T16:22:10.860Z,10.15
2023-03-06T16:24:37.779Z,9.82
2023-03-06T16:27:04.929Z,10.15
2023-03-06T16:29:31.928Z,10.60
2023-03-06T16:32:01.730Z,10.60
2023-03-06T16:34:28.757Z,9.98
2023-03-06T16:36:56.661Z,11.70
2023-03-06T16:39:24.380Z,10.90
2023-03-06T16:41:52.171Z,10.63
2023-03-06T16:44:19.707Z,10.43
2023-03-06T16:46:49.156Z,11.02
2023-03-06T16:49:21.309Z,9.88
2023-03-06T16:51:49.147Z,9.48
2023-03-06T16:54:16.008Z,9.88
2023-03-06T16:56:43.462Z,11.80
2023-03-06T16:59:10.581Z,9.98
2023-03-06T17:01:37.733Z,9.77
2023-03-06T17:04:05.968Z,11.25
2023-03-06T17:06:32.543Z,10.75
2023-03-06T17:09:01.456Z,11.43
2023-03-06T17:11:28.322Z,9.18
2023-03-06T17:13:55.410Z,9.70
2023-03-06T17:16:22.375Z,11.40
2023-03-06T17:18:49.840Z,9.40
2023-03-06T17:21:16.616Z,12.10
2023-03-06T17:23:44.594Z,12.52
2023-03-06T17:26:13.144Z,13.60
2023-03-06T17:28:40.999Z,11.18
2023-03-06T17:31:20.308Z,11.13
2023-03-06T17:33:46.922Z,12.65
2023-03-06T17:36:14.638Z,10.60
2023-03-06T17:38:42.174Z,11.93
2023-03-06T17:41:10.250Z,11.15
2023-03-06T17:43:37.906Z,10.20
2023-03-06T17:46:06.049Z,11.02
2023-03-06T17:48:32.994Z,14.82
2023-03-06T17:51:00.929Z,12.88
2023-03-06T17:53:28.185Z,12.68
2023-03-06T17:55:55.405Z,11.07
2023-03-06T17:58:22.212Z,10.82
2023-03-06T18:00:49.072Z,12.20
2023-03-06T18:03:15.953Z,12.48
2023-03-06T18:05:42.521Z,12.52
2023-03-06T18:08:10.301Z,11.90
2023-03-06T18:10:47.640Z,13.20
2023-03-06T18:13:14.170Z,12.32
2023-03-06T18:15:41.573Z,12.23
2023-03-06T18:18:08.807Z,12.45
2023-03-06T18:20:41.059Z,15.60
2023-03-06T18:23:07.637Z,13.98
2023-03-06T18:25:34.225Z,12.10
2023-03-06T18:28:00.964Z,13.52
2023-03-06T18:30:27.558Z,13.02
2023-03-06T18:32:54.480Z,14.25
2023-03-06T18:35:21.599Z,13.77
2023-03-06T18:37:48.181Z,14.95
2023-03-06T18:40:15.181Z,14.95
2023-03-06T18:42:41.817Z,14.57
2023-03-06T18:45:08.882Z,14.00
2023-03-06T18:47:35.501Z,13.18
2023-03-06T18:50:05.179Z,15.82
2023-03-06T18:52:31.760Z,14.32
2023-03-06T18:54:58.334Z,13.70
2023-03-06T18:57:24.931Z,14.20
2023-03-06T18:59:51.542Z,14.85
2023-03-06T19:02:18.114Z,15.48
2023-03-06T19:04:44.771Z,14.68
2023-03-06T19:07:16.013Z,16.40
2023-03-06T19:09:44.372Z,14.48
2023-03-06T19:12:11.569Z,16.25
2023-03-06T19:14:38.424Z,14.10
2023-03-06T19:17:05.237Z,15.15
2023-03-06T19:19:31.819Z,16.42
2023-03-06T19:21:58.929Z,13.75
2023-03-06T19:24:25.590Z,14.40
2023-03-06T19:26:52.318Z,13.90
2023-03-06T19:29:18.866Z,15.05
2023-03-06T19:31:45.436Z,16.75
2023-03-06T19:34:12.007Z,14.50
2023-03-06T19:36:40.642Z,15.65
2023-03-06T19:39:08.127Z,14.55
2023-03-06T19:41:34.740Z,15.00
2023-03-06T19:44:03.350Z,14.93
2023-03-06T19:46:32.026Z,14.25
2023-03-06T19:49:02.144Z,15.75
2023-03-06T19:51:29.299Z,15.00
2023-03-06T19:53:56.884Z,14.55
2023-03-06T19:56:30.183Z,13.95
2023-03-06T19:58:56.797Z,14.05
2023-03-06T20:01:26.238Z,15.52
2023-03-06T20:03:58.899Z,14.88
2023-03-06T20:06:31.068Z,16.65
2023-03-06T20:08:58.994Z,15.60
2023-03-06T20:11:29.797Z,14.57
2023-03-06T20:14:01.783Z,14.75
2023-03-06T20:16:29.588Z,15.05
2023-03-06T20:18:58.736Z,15.40
2023-03-06T20:21:26.771Z,16.63
2023-03-06T20:23:54.895Z,17.17
2023-03-06T20:26:21.525Z,16.52
2023-03-06T20:28:48.460Z,16.55
2023-03-06T20:31:21.710Z,15.48
2023-03-06T20:33:50.850Z,16.02
2023-03-06T20:36:21.492Z,16.85
2023-03-06T20:38:48.832Z,17.02
2023-03-06T20:41:23.770Z,18.15
2023-03-06T20:43:51.188Z,15.43
2023-03-06T20:46:18.894Z,15.18
2023-03-06T20:48:49.143Z,16.33
2023-03-06T20:51:18.505Z,14.95
2023-03-06T20:53:47.660Z,17.67
2023-03-06T20:56:15.945Z,15.93
2023-03-06T20:58:43.261Z,16.95
2023-03-06T21:01:09.969Z,16.35
2023-03-06T21:03:36.593Z,12.55
2023-03-06T21:06:03.431Z,14.73
2023-03-06T21:08:31.361Z,14.55
2023-03-06T21:10:57.939Z,16.02
2023-03-06T21:13:24.626Z,13.52
2023-03-06T21:15:51.296Z,14.43
2023-03-06T21:18:18.133Z,12.57
2023-03-06T21:20:44.940Z,14.43
2023-03-06T21:23:11.517Z,13.45
2023-03-06T21:25:46.060Z,13.93
2023-03-06T21:28:12.548Z,14.63
2023-03-06T21:30:39.110Z,15.07
2023-03-06T21:33:05.805Z,13.98
2023-03-06T21:35:36.559Z,14.00
2023-03-06T21:38:03.094Z,14.35
2023-03-06T21:40:29.653Z,15.98
2023-03-06T21:42:56.163Z,15.32
2023-03-06T21:45:22.721Z,14.98
2023-03-06T21:47:49.536Z,14.63
2023-03-06T21:50:17.455Z,15.95
2023-03-06T21:52:44.046Z,16.30
2023-03-06T21:55:10.597Z,17.10
2023-03-06T21:57:37.203Z,16.08
2023-03-06T22:00:08.436Z,14.52
2023-03-06T22:02:35.696Z,15.25
2023-03-06T22:05:02.286Z,17.35
2023-03-06T22:07:29.202Z,14.95
2023-03-06T22:09:55.923Z,16.13
2023-03-06T22:12:22.454Z,14.35
2023-03-06T22:14:49.005Z,17.05
2023-03-06T22:17:15.580Z,13.63
2023-03-06T22:19:42.082Z,14.40
2023-03-06T22:22:10.709Z,18.65
2023-03-06T22:24:37.345Z,18.67
2023-03-06T22:27:04.050Z,18.98
2023-03-06T22:29:30.566Z,15.18
2023-03-06T22:31:58.708Z,18.95
2023-03-06T22:34:26.600Z,15.80
2023-03-06T22:36:53.162Z,15.18
2023-03-06T22:39:19.697Z,17.73
2023-03-06T22:41:46.272Z,14.10
2023-03-06T22:44:17.304Z,15.40
2023-03-06T22:46:44.462Z,16.08
2023-03-06T22:49:12.619Z,18.73
2023-03-06T22:51:40.166Z,15.40
2023-03-06T22:54:08.822Z,13.75
2023-03-06T22:56:36.198Z,12.65
2023-03-06T22:59:04.302Z,13.70
2023-03-06T23:01:33.742Z,12.67
2023-03-06T23:04:03.381Z,14.20
2023-03-06T23:06:35.304Z,13.60
2023-03-06T23:09:08.265Z,14.13
2023-03-06T23:11:35.194Z,14.45
2023-03-06T23:14:02.336Z,13.07
2023-03-06T23:16:29.311Z,13.48
2023-03-06T23:18:55.897Z,15.68
2023-03-06T23:21:23.221Z,16.05
2023-03-06T23:23:54.173Z,14.68
2023-03-06T23:26:23.618Z,14.05
2023-03-06T23:28:51.175Z,14.98
2023-03-06T23:31:22.785Z,15.60
2023-03-06T23:33:49.978Z,16.48
2023-03-06T23:36:18.161Z,15.70
2023-03-06T23:38:45.351Z,17.85
2023-03-06T23:41:17.338Z,13.35
2023-03-06T23:43:44.969Z,14.68
2023-03-06T23:46:11.773Z,15.05
2023-03-06T23:48:40.523Z,13.38
2023-03-06T23:51:20.903Z,14.15
2023-03-06T23:53:52.908Z,16.27
2023-03-06T23:56:19.510Z,16.70
2023-03-06T23:58:46.160Z,16.05
